Alley Springs, Missouri
Current Conditions -  °F | °C
As of 2:53 PM on Friday 19 Dec 2014 (Local Time) from KUNO Reporting Station
Overcast Overcast  
Wind Chill: 31°   Ceiling: 500
Heat Index: 35°   Visibility: 9mi
Dew Point: 32°   Wind: 5mph
Humidity: 89%   Direction: 90°E
Pressure: 30.2"   Gusts: NA
Location:  37.1833°N, 91.4819°W
Report Text: KUNO 192053Z AUTO 09004KT 9SM BKN005 OVC009 02/00 A3020 RMK AO2 CIG 005V008 SLP235 T00170000 56024
Loading
Personal Weather Stations






























Interactive Weather Map New forecast layout! Learn more

10-Day Weather Forecast

Advertisements
Track Severe Weather on mobile